sensor_id;sensor_type;location;lat;lon;timestamp;P1;durP1;ratioP1;P2;durP2;ratioP2
32808;SDS011;19159;48.178;16.386;2023-07-28T00:00:12;4.07;;;1.70;;
32808;SDS011;19159;48.178;16.386;2023-07-28T00:02:38;1.90;;;1.50;;
32808;SDS011;19159;48.178;16.386;2023-07-28T00:05:04;1.40;;;1.30;;
32808;SDS011;19159;48.178;16.386;2023-07-28T00:07:29;2.83;;;1.52;;
32808;SDS011;19159;48.178;16.386;2023-07-28T00:09:55;4.65;;;1.58;;
32808;SDS011;19159;48.178;16.386;2023-07-28T00:12:21;2.47;;;1.80;;
32808;SDS011;19159;48.178;16.386;2023-07-28T00:14:47;2.65;;;1.50;;
32808;SDS011;19159;48.178;16.386;2023-07-28T00:17:12;2.67;;;1.70;;
32808;SDS011;19159;48.178;16.386;2023-07-28T00:19:38;2.92;;;1.60;;
32808;SDS011;19159;48.178;16.386;2023-07-28T00:22:03;1.60;;;1.50;;
32808;SDS011;19159;48.178;16.386;2023-07-28T00:24:29;3.05;;;1.30;;
32808;SDS011;19159;48.178;16.386;2023-07-28T00:26:55;1.70;;;1.40;;
32808;SDS011;19159;48.178;16.386;2023-07-28T00:29:20;2.13;;;1.48;;
32808;SDS011;19159;48.178;16.386;2023-07-28T00:31:46;2.95;;;1.75;;
32808;SDS011;19159;48.178;16.386;2023-07-28T00:34:11;2.55;;;1.80;;
32808;SDS011;19159;48.178;16.386;2023-07-28T00:36:37;2.13;;;1.70;;
32808;SDS011;19159;48.178;16.386;2023-07-28T00:39:02;3.58;;;1.67;;
32808;SDS011;19159;48.178;16.386;2023-07-28T00:41:28;3.60;;;1.90;;
32808;SDS011;19159;48.178;16.386;2023-07-28T00:43:54;3.13;;;1.77;;
32808;SDS011;19159;48.178;16.386;2023-07-28T00:46:19;3.03;;;1.52;;
32808;SDS011;19159;48.178;16.386;2023-07-28T00:48:45;1.85;;;1.63;;
32808;SDS011;19159;48.178;16.386;2023-07-28T00:51:11;2.20;;;1.80;;
32808;SDS011;19159;48.178;16.386;2023-07-28T00:53:37;2.15;;;1.48;;
32808;SDS011;19159;48.178;16.386;2023-07-28T00:56:02;2.00;;;1.40;;
32808;SDS011;19159;48.178;16.386;2023-07-28T00:58:29;1.67;;;1.35;;
32808;SDS011;19159;48.178;16.386;2023-07-28T01:00:55;2.92;;;1.58;;
32808;SDS011;19159;48.178;16.386;2023-07-28T01:03:21;3.63;;;1.80;;
32808;SDS011;19159;48.178;16.386;2023-07-28T01:08:46;3.38;;;1.70;;
32808;SDS011;19159;48.178;16.386;2023-07-28T01:11:19;2.20;;;1.60;;
32808;SDS011;19159;48.178;16.386;2023-07-28T01:13:46;2.03;;;1.70;;
32808;SDS011;19159;48.178;16.386;2023-07-28T01:16:11;2.88;;;1.80;;
32808;SDS011;19159;48.178;16.386;2023-07-28T01:18:37;1.90;;;1.55;;
32808;SDS011;19159;48.178;16.386;2023-07-28T01:21:03;2.50;;;1.73;;
32808;SDS011;19159;48.178;16.386;2023-07-28T01:23:51;2.53;;;1.67;;
32808;SDS011;19159;48.178;16.386;2023-07-28T01:26:33;1.73;;;1.60;;
32808;SDS011;19159;48.178;16.386;2023-07-28T01:29:01;2.47;;;1.52;;
32808;SDS011;19159;48.178;16.386;2023-07-28T01:31:28;2.42;;;1.80;;
32808;SDS011;19159;48.178;16.386;2023-07-28T01:33:54;2.08;;;1.73;;
32808;SDS011;19159;48.178;16.386;2023-07-28T01:36:19;1.80;;;1.35;;
32808;SDS011;19159;48.178;16.386;2023-07-28T01:38:45;2.28;;;1.55;;
32808;SDS011;19159;48.178;16.386;2023-07-28T01:41:11;1.92;;;1.55;;
32808;SDS011;19159;48.178;16.386;2023-07-28T01:43:37;2.28;;;1.50;;
32808;SDS011;19159;48.178;16.386;2023-07-28T01:46:02;3.33;;;1.60;;
32808;SDS011;19159;48.178;16.386;2023-07-28T01:48:28;2.20;;;1.40;;
32808;SDS011;19159;48.178;16.386;2023-07-28T01:50:53;1.52;;;1.35;;
32808;SDS011;19159;48.178;16.386;2023-07-28T01:53:19;2.58;;;1.85;;
32808;SDS011;19159;48.178;16.386;2023-07-28T01:55:45;1.73;;;1.60;;
32808;SDS011;19159;48.178;16.386;2023-07-28T01:58:10;1.80;;;1.50;;
32808;SDS011;19159;48.178;16.386;2023-07-28T02:00:36;1.77;;;1.50;;
32808;SDS011;19159;48.178;16.386;2023-07-28T02:03:02;2.55;;;1.65;;
32808;SDS011;19159;48.178;16.386;2023-07-28T02:05:28;2.13;;;1.50;;
32808;SDS011;19159;48.178;16.386;2023-07-28T02:07:54;3.13;;;1.55;;
32808;SDS011;19159;48.178;16.386;2023-07-28T02:10:21;1.73;;;1.30;;
32808;SDS011;19159;48.178;16.386;2023-07-28T02:12:48;2.67;;;1.50;;
32808;SDS011;19159;48.178;16.386;2023-07-28T02:15:15;2.10;;;1.60;;
32808;SDS011;19159;48.178;16.386;2023-07-28T02:17:40;1.75;;;1.50;;
32808;SDS011;19159;48.178;16.386;2023-07-28T02:20:06;3.03;;;1.50;;
32808;SDS011;19159;48.178;16.386;2023-07-28T02:22:35;1.92;;;1.75;;
32808;SDS011;19159;48.178;16.386;2023-07-28T02:25:01;1.40;;;1.20;;
32808;SDS011;19159;48.178;16.386;2023-07-28T02:27:27;2.78;;;1.98;;
32808;SDS011;19159;48.178;16.386;2023-07-28T02:29:53;3.67;;;1.70;;
32808;SDS011;19159;48.178;16.386;2023-07-28T02:32:19;2.70;;;1.70;;
32808;SDS011;19159;48.178;16.386;2023-07-28T02:34:44;2.50;;;1.60;;
32808;SDS011;19159;48.178;16.386;2023-07-28T02:37:10;2.15;;;1.80;;
32808;SDS011;19159;48.178;16.386;2023-07-28T02:39:35;2.95;;;1.52;;
32808;SDS011;19159;48.178;16.386;2023-07-28T02:42:01;4.03;;;1.73;;
32808;SDS011;19159;48.178;16.386;2023-07-28T02:44:27;2.85;;;1.85;;
32808;SDS011;19159;48.178;16.386;2023-07-28T02:46:52;2.35;;;1.67;;
32808;SDS011;19159;48.178;16.386;2023-07-28T02:49:18;2.92;;;2.05;;
32808;SDS011;19159;48.178;16.386;2023-07-28T02:51:43;1.65;;;1.55;;
32808;SDS011;19159;48.178;16.386;2023-07-28T02:54:09;4.07;;;2.20;;
32808;SDS011;19159;48.178;16.386;2023-07-28T02:56:34;2.90;;;2.17;;
32808;SDS011;19159;48.178;16.386;2023-07-28T02:59:03;2.67;;;2.00;;
32808;SDS011;19159;48.178;16.386;2023-07-28T03:01:29;2.85;;;1.40;;
32808;SDS011;19159;48.178;16.386;2023-07-28T03:03:58;3.53;;;2.30;;
32808;SDS011;19159;48.178;16.386;2023-07-28T03:06:27;2.22;;;1.70;;
32808;SDS011;19159;48.178;16.386;2023-07-28T03:08:53;2.60;;;1.90;;
32808;SDS011;19159;48.178;16.386;2023-07-28T03:11:19;2.95;;;1.83;;
32808;SDS011;19159;48.178;16.386;2023-07-28T03:13:45;3.42;;;1.70;;
32808;SDS011;19159;48.178;16.386;2023-07-28T03:16:11;3.83;;;1.90;;
32808;SDS011;19159;48.178;16.386;2023-07-28T03:18:37;5.97;;;2.00;;
32808;SDS011;19159;48.178;16.386;2023-07-28T03:21:02;1.85;;;1.50;;
32808;SDS011;19159;48.178;16.386;2023-07-28T03:23:28;3.67;;;1.98;;
32808;SDS011;19159;48.178;16.386;2023-07-28T03:25:54;3.53;;;2.13;;
32808;SDS011;19159;48.178;16.386;2023-07-28T03:28:19;5.55;;;2.30;;
32808;SDS011;19159;48.178;16.386;2023-07-28T03:30:45;2.40;;;1.73;;
32808;SDS011;19159;48.178;16.386;2023-07-28T03:33:11;2.78;;;1.95;;
32808;SDS011;19159;48.178;16.386;2023-07-28T03:35:36;2.30;;;2.00;;
32808;SDS011;19159;48.178;16.386;2023-07-28T03:38:02;2.15;;;1.85;;
32808;SDS011;19159;48.178;16.386;2023-07-28T03:40:28;2.33;;;1.83;;
32808;SDS011;19159;48.178;16.386;2023-07-28T03:42:53;2.22;;;1.63;;
32808;SDS011;19159;48.178;16.386;2023-07-28T03:45:19;2.22;;;1.67;;
32808;SDS011;19159;48.178;16.386;2023-07-28T03:47:45;2.67;;;1.95;;
32808;SDS011;19159;48.178;16.386;2023-07-28T03:50:10;6.60;;;2.00;;
32808;SDS011;19159;48.178;16.386;2023-07-28T03:52:36;2.35;;;1.80;;
32808;SDS011;19159;48.178;16.386;2023-07-28T03:55:02;4.65;;;2.30;;
32808;SDS011;19159;48.178;16.386;2023-07-28T03:57:27;3.85;;;2.03;;
32808;SDS011;19159;48.178;16.386;2023-07-28T03:59:53;2.65;;;1.88;;
32808;SDS011;19159;48.178;16.386;2023-07-28T04:02:18;3.08;;;1.70;;
32808;SDS011;19159;48.178;16.386;2023-07-28T04:04:44;3.35;;;2.17;;
32808;SDS011;19159;48.178;16.386;2023-07-28T04:07:10;2.63;;;1.92;;
32808;SDS011;19159;48.178;16.386;2023-07-28T04:09:35;2.58;;;1.95;;
32808;SDS011;19159;48.178;16.386;2023-07-28T04:12:01;2.92;;;2.00;;
32808;SDS011;19159;48.178;16.386;2023-07-28T04:14:26;2.45;;;1.80;;
32808;SDS011;19159;48.178;16.386;2023-07-28T04:16:52;2.80;;;1.92;;
32808;SDS011;19159;48.178;16.386;2023-07-28T04:19:18;2.58;;;2.10;;
32808;SDS011;19159;48.178;16.386;2023-07-28T04:21:43;4.45;;;1.95;;
32808;SDS011;19159;48.178;16.386;2023-07-28T04:24:10;4.45;;;2.15;;
32808;SDS011;19159;48.178;16.386;2023-07-28T04:26:36;2.25;;;2.00;;
32808;SDS011;19159;48.178;16.386;2023-07-28T04:29:02;3.58;;;2.00;;
32808;SDS011;19159;48.178;16.386;2023-07-28T04:31:27;2.92;;;1.83;;
32808;SDS011;19159;48.178;16.386;2023-07-28T04:33:53;3.38;;;2.08;;
32808;SDS011;19159;48.178;16.386;2023-07-28T04:36:19;3.33;;;2.28;;
32808;SDS011;19159;48.178;16.386;2023-07-28T04:38:44;4.13;;;2.30;;
32808;SDS011;19159;48.178;16.386;2023-07-28T04:41:10;3.10;;;1.92;;
32808;SDS011;19159;48.178;16.386;2023-07-28T04:43:35;4.15;;;2.25;;
32808;SDS011;19159;48.178;16.386;2023-07-28T04:46:01;4.57;;;2.50;;
32808;SDS011;19159;48.178;16.386;2023-07-28T04:48:27;6.63;;;2.35;;
32808;SDS011;19159;48.178;16.386;2023-07-28T04:50:53;4.60;;;2.30;;
32808;SDS011;19159;48.178;16.386;2023-07-28T04:53:19;3.75;;;2.20;;
32808;SDS011;19159;48.178;16.386;2023-07-28T04:55:44;4.28;;;2.78;;
32808;SDS011;19159;48.178;16.386;2023-07-28T04:58:10;5.07;;;2.15;;
32808;SDS011;19159;48.178;16.386;2023-07-28T05:00:35;4.20;;;2.33;;
32808;SDS011;19159;48.178;16.386;2023-07-28T05:03:01;3.70;;;2.22;;
32808;SDS011;19159;48.178;16.386;2023-07-28T05:05:28;4.03;;;2.17;;
32808;SDS011;19159;48.178;16.386;2023-07-28T05:07:54;6.38;;;2.47;;
32808;SDS011;19159;48.178;16.386;2023-07-28T05:10:20;5.20;;;1.80;;
32808;SDS011;19159;48.178;16.386;2023-07-28T05:12:45;6.63;;;2.22;;
32808;SDS011;19159;48.178;16.386;2023-07-28T05:15:13;4.93;;;2.38;;
32808;SDS011;19159;48.178;16.386;2023-07-28T05:17:39;3.17;;;1.92;;
32808;SDS011;19159;48.178;16.386;2023-07-28T05:20:05;3.50;;;2.25;;
32808;SDS011;19159;48.178;16.386;2023-07-28T05:22:31;4.65;;;2.45;;
32808;SDS011;19159;48.178;16.386;2023-07-28T05:24:56;6.13;;;2.38;;
32808;SDS011;19159;48.178;16.386;2023-07-28T05:27:22;4.50;;;1.90;;
32808;SDS011;19159;48.178;16.386;2023-07-28T05:29:48;4.45;;;2.10;;
32808;SDS011;19159;48.178;16.386;2023-07-28T05:32:13;3.65;;;2.25;;
32808;SDS011;19159;48.178;16.386;2023-07-28T05:34:41;2.70;;;2.10;;
32808;SDS011;19159;48.178;16.386;2023-07-28T05:37:08;9.43;;;2.38;;
32808;SDS011;19159;48.178;16.386;2023-07-28T05:39:33;4.55;;;2.05;;
32808;SDS011;19159;48.178;16.386;2023-07-28T05:41:59;5.15;;;2.45;;
32808;SDS011;19159;48.178;16.386;2023-07-28T05:44:25;7.57;;;2.60;;
32808;SDS011;19159;48.178;16.386;2023-07-28T05:46:50;7.35;;;2.10;;
32808;SDS011;19159;48.178;16.386;2023-07-28T05:49:16;4.10;;;2.00;;
32808;SDS011;19159;48.178;16.386;2023-07-28T05:51:41;3.00;;;1.90;;
32808;SDS011;19159;48.178;16.386;2023-07-28T05:54:07;3.95;;;2.38;;
32808;SDS011;19159;48.178;16.386;2023-07-28T05:56:32;5.20;;;2.30;;
32808;SDS011;19159;48.178;16.386;2023-07-28T05:58:58;5.68;;;2.22;;
32808;SDS011;19159;48.178;16.386;2023-07-28T06:01:24;3.03;;;1.60;;
32808;SDS011;19159;48.178;16.386;2023-07-28T06:03:52;3.22;;;1.80;;
32808;SDS011;19159;48.178;16.386;2023-07-28T06:06:20;3.00;;;2.00;;
32808;SDS011;19159;48.178;16.386;2023-07-28T06:08:47;3.78;;;2.45;;
32808;SDS011;19159;48.178;16.386;2023-07-28T06:11:12;5.13;;;2.05;;
32808;SDS011;19159;48.178;16.386;2023-07-28T06:13:38;3.63;;;1.77;;
32808;SDS011;19159;48.178;16.386;2023-07-28T06:16:03;4.97;;;2.22;;
32808;SDS011;19159;48.178;16.386;2023-07-28T06:18:29;5.47;;;2.13;;
32808;SDS011;19159;48.178;16.386;2023-07-28T06:20:55;4.15;;;2.35;;
32808;SDS011;19159;48.178;16.386;2023-07-28T06:23:20;3.33;;;2.10;;
32808;SDS011;19159;48.178;16.386;2023-07-28T06:25:46;2.90;;;2.22;;
32808;SDS011;19159;48.178;16.386;2023-07-28T06:28:12;3.30;;;2.20;;
32808;SDS011;19159;48.178;16.386;2023-07-28T06:30:38;2.80;;;1.92;;
32808;SDS011;19159;48.178;16.386;2023-07-28T06:33:06;3.80;;;1.92;;
32808;SDS011;19159;48.178;16.386;2023-07-28T06:35:32;3.67;;;2.13;;
32808;SDS011;19159;48.178;16.386;2023-07-28T06:37:59;5.18;;;2.15;;
32808;SDS011;19159;48.178;16.386;2023-07-28T06:40:25;4.18;;;2.15;;
32808;SDS011;19159;48.178;16.386;2023-07-28T06:42:51;6.30;;;2.20;;
32808;SDS011;19159;48.178;16.386;2023-07-28T06:45:16;2.78;;;2.00;;
32808;SDS011;19159;48.178;16.386;2023-07-28T06:47:42;3.17;;;2.28;;
32808;SDS011;19159;48.178;16.386;2023-07-28T06:50:08;5.07;;;2.10;;
32808;SDS011;19159;48.178;16.386;2023-07-28T06:52:35;6.28;;;2.05;;
32808;SDS011;19159;48.178;16.386;2023-07-28T06:55:01;4.03;;;2.17;;
32808;SDS011;19159;48.178;16.386;2023-07-28T06:57:27;3.75;;;1.95;;
32808;SDS011;19159;48.178;16.386;2023-07-28T06:59:52;9.10;;;2.63;;
32808;SDS011;19159;48.178;16.386;2023-07-28T07:02:18;4.88;;;2.47;;
32808;SDS011;19159;48.178;16.386;2023-07-28T07:04:43;4.00;;;2.10;;
32808;SDS011;19159;48.178;16.386;2023-07-28T07:07:09;3.67;;;2.10;;
32808;SDS011;19159;48.178;16.386;2023-07-28T07:09:35;4.63;;;1.73;;
32808;SDS011;19159;48.178;16.386;2023-07-28T07:12:01;3.58;;;1.95;;
32808;SDS011;19159;48.178;16.386;2023-07-28T07:14:27;5.63;;;2.08;;
32808;SDS011;19159;48.178;16.386;2023-07-28T07:16:52;3.42;;;1.70;;
32808;SDS011;19159;48.178;16.386;2023-07-28T07:19:18;3.35;;;2.08;;
32808;SDS011;19159;48.178;16.386;2023-07-28T07:21:44;2.42;;;1.55;;
32808;SDS011;19159;48.178;16.386;2023-07-28T07:24:10;4.75;;;2.05;;
32808;SDS011;19159;48.178;16.386;2023-07-28T07:26:38;3.63;;;1.70;;
32808;SDS011;19159;48.178;16.386;2023-07-28T07:29:07;5.03;;;1.52;;
32808;SDS011;19159;48.178;16.386;2023-07-28T07:31:34;3.28;;;1.48;;
32808;SDS011;19159;48.178;16.386;2023-07-28T07:34:00;3.92;;;1.50;;
32808;SDS011;19159;48.178;16.386;2023-07-28T07:36:26;2.22;;;1.45;;
32808;SDS011;19159;48.178;16.386;2023-07-28T07:38:51;2.70;;;1.70;;
32808;SDS011;19159;48.178;16.386;2023-07-28T07:41:17;2.97;;;1.52;;
32808;SDS011;19159;48.178;16.386;2023-07-28T07:43:45;3.30;;;1.80;;
32808;SDS011;19159;48.178;16.386;2023-07-28T07:46:11;3.42;;;1.70;;
32808;SDS011;19159;48.178;16.386;2023-07-28T07:48:37;3.92;;;1.80;;
32808;SDS011;19159;48.178;16.386;2023-07-28T07:51:03;3.13;;;1.70;;
32808;SDS011;19159;48.178;16.386;2023-07-28T07:53:29;3.55;;;1.75;;
32808;SDS011;19159;48.178;16.386;2023-07-28T07:55:54;2.55;;;1.50;;
32808;SDS011;19159;48.178;16.386;2023-07-28T07:58:20;5.70;;;2.22;;
32808;SDS011;19159;48.178;16.386;2023-07-28T08:00:45;2.67;;;1.80;;
32808;SDS011;19159;48.178;16.386;2023-07-28T08:03:11;3.55;;;1.67;;
32808;SDS011;19159;48.178;16.386;2023-07-28T08:05:37;10.35;;;1.90;;
32808;SDS011;19159;48.178;16.386;2023-07-28T08:08:02;4.47;;;1.45;;
32808;SDS011;19159;48.178;16.386;2023-07-28T08:10:30;3.13;;;1.80;;
32808;SDS011;19159;48.178;16.386;2023-07-28T08:12:56;3.38;;;1.50;;
32808;SDS011;19159;48.178;16.386;2023-07-28T08:15:22;3.78;;;2.10;;
32808;SDS011;19159;48.178;16.386;2023-07-28T08:17:47;3.60;;;1.58;;
32808;SDS011;19159;48.178;16.386;2023-07-28T08:20:13;3.42;;;1.60;;
32808;SDS011;19159;48.178;16.386;2023-07-28T08:22:39;2.55;;;1.83;;
32808;SDS011;19159;48.178;16.386;2023-07-28T08:25:05;3.25;;;1.63;;
32808;SDS011;19159;48.178;16.386;2023-07-28T08:27:30;2.60;;;1.45;;
32808;SDS011;19159;48.178;16.386;2023-07-28T08:29:56;3.63;;;1.80;;
32808;SDS011;19159;48.178;16.386;2023-07-28T08:32:21;9.85;;;2.65;;
32808;SDS011;19159;48.178;16.386;2023-07-28T08:34:47;6.57;;;1.85;;
32808;SDS011;19159;48.178;16.386;2023-07-28T08:37:13;2.65;;;1.80;;
32808;SDS011;19159;48.178;16.386;2023-07-28T08:39:39;1.70;;;1.40;;
32808;SDS011;19159;48.178;16.386;2023-07-28T08:42:04;2.83;;;1.85;;
32808;SDS011;19159;48.178;16.386;2023-07-28T08:44:34;2.05;;;1.20;;
32808;SDS011;19159;48.178;16.386;2023-07-28T08:47:03;2.55;;;1.23;;
32808;SDS011;19159;48.178;16.386;2023-07-28T08:49:30;3.17;;;1.40;;
32808;SDS011;19159;48.178;16.386;2023-07-28T08:51:58;3.58;;;1.63;;
32808;SDS011;19159;48.178;16.386;2023-07-28T08:54:25;2.72;;;1.42;;
32808;SDS011;19159;48.178;16.386;2023-07-28T08:56:51;3.03;;;1.50;;
32808;SDS011;19159;48.178;16.386;2023-07-28T08:59:23;1.83;;;1.30;;
32808;SDS011;19159;48.178;16.386;2023-07-28T09:01:55;1.50;;;1.20;;
32808;SDS011;19159;48.178;16.386;2023-07-28T09:04:23;3.40;;;1.20;;
32808;SDS011;19159;48.178;16.386;2023-07-28T09:06:49;3.38;;;1.40;;
32808;SDS011;19159;48.178;16.386;2023-07-28T09:09:16;1.98;;;1.45;;
32808;SDS011;19159;48.178;16.386;2023-07-28T09:11:45;3.95;;;1.38;;
32808;SDS011;19159;48.178;16.386;2023-07-28T09:14:15;1.60;;;1.30;;
32808;SDS011;19159;48.178;16.386;2023-07-28T09:16:42;1.58;;;1.20;;
32808;SDS011;19159;48.178;16.386;2023-07-28T09:19:09;1.58;;;1.48;;
32808;SDS011;19159;48.178;16.386;2023-07-28T09:21:35;3.50;;;1.38;;
32808;SDS011;19159;48.178;16.386;2023-07-28T09:24:09;4.30;;;1.25;;
32808;SDS011;19159;48.178;16.386;2023-07-28T09:29:14;2.38;;;1.30;;
32808;SDS011;19159;48.178;16.386;2023-07-28T09:31:41;3.15;;;1.50;;
32808;SDS011;19159;48.178;16.386;2023-07-28T09:34:08;3.47;;;1.48;;
32808;SDS011;19159;48.178;16.386;2023-07-28T09:36:34;1.52;;;1.20;;
32808;SDS011;19159;48.178;16.386;2023-07-28T09:39:01;5.88;;;1.70;;
32808;SDS011;19159;48.178;16.386;2023-07-28T09:41:31;4.72;;;1.65;;
32808;SDS011;19159;48.178;16.386;2023-07-28T09:43:57;2.78;;;1.52;;
32808;SDS011;19159;48.178;16.386;2023-07-28T09:46:23;2.53;;;1.70;;
32808;SDS011;19159;48.178;16.386;2023-07-28T09:48:52;3.78;;;1.85;;
32808;SDS011;19159;48.178;16.386;2023-07-28T09:51:25;1.88;;;1.48;;
32808;SDS011;19159;48.178;16.386;2023-07-28T09:54:11;2.95;;;1.80;;
32808;SDS011;19159;48.178;16.386;2023-07-28T09:56:37;4.43;;;1.88;;
32808;SDS011;19159;48.178;16.386;2023-07-28T09:59:05;2.15;;;1.48;;
32808;SDS011;19159;48.178;16.386;2023-07-28T10:01:38;7.75;;;1.88;;
32808;SDS011;19159;48.178;16.386;2023-07-28T10:04:04;2.05;;;1.58;;
32808;SDS011;19159;48.178;16.386;2023-07-28T10:06:30;2.08;;;1.70;;
32808;SDS011;19159;48.178;16.386;2023-07-28T10:08:58;3.63;;;1.70;;
32808;SDS011;19159;48.178;16.386;2023-07-28T10:11:26;4.93;;;1.83;;
32808;SDS011;19159;48.178;16.386;2023-07-28T10:13:53;2.45;;;1.70;;
32808;SDS011;19159;48.178;16.386;2023-07-28T10:16:19;2.75;;;1.70;;
32808;SDS011;19159;48.178;16.386;2023-07-28T10:18:54;2.80;;;1.45;;
32808;SDS011;19159;48.178;16.386;2023-07-28T10:21:20;2.40;;;1.60;;
32808;SDS011;19159;48.178;16.386;2023-07-28T10:23:54;3.10;;;1.48;;
32808;SDS011;19159;48.178;16.386;2023-07-28T10:26:31;1.88;;;1.40;;
32808;SDS011;19159;48.178;16.386;2023-07-28T10:29:13;1.65;;;1.50;;
32808;SDS011;19159;48.178;16.386;2023-07-28T10:31:49;2.60;;;1.40;;
32808;SDS011;19159;48.178;16.386;2023-07-28T10:34:16;2.42;;;1.73;;
32808;SDS011;19159;48.178;16.386;2023-07-28T10:36:43;3.58;;;1.42;;
32808;SDS011;19159;48.178;16.386;2023-07-28T10:39:15;7.82;;;2.03;;
32808;SDS011;19159;48.178;16.386;2023-07-28T10:44:35;3.47;;;1.50;;
32808;SDS011;19159;48.178;16.386;2023-07-28T10:47:01;6.18;;;1.52;;
32808;SDS011;19159;48.178;16.386;2023-07-28T10:49:32;2.55;;;1.40;;
32808;SDS011;19159;48.178;16.386;2023-07-28T10:51:59;2.72;;;1.45;;
32808;SDS011;19159;48.178;16.386;2023-07-28T10:54:24;3.47;;;1.40;;
32808;SDS011;19159;48.178;16.386;2023-07-28T10:56:50;3.53;;;1.50;;
32808;SDS011;19159;48.178;16.386;2023-07-28T10:59:15;2.33;;;1.60;;
32808;SDS011;19159;48.178;16.386;2023-07-28T11:01:41;3.70;;;1.52;;
32808;SDS011;19159;48.178;16.386;2023-07-28T11:04:12;4.35;;;1.65;;
32808;SDS011;19159;48.178;16.386;2023-07-28T11:06:43;1.52;;;1.10;;
32808;SDS011;19159;48.178;16.386;2023-07-28T11:09:10;2.78;;;1.33;;
32808;SDS011;19159;48.178;16.386;2023-07-28T11:11:39;2.40;;;1.42;;
32808;SDS011;19159;48.178;16.386;2023-07-28T11:14:06;3.72;;;1.33;;
32808;SDS011;19159;48.178;16.386;2023-07-28T11:16:33;2.00;;;1.33;;
32808;SDS011;19159;48.178;16.386;2023-07-28T11:19:00;3.17;;;1.20;;
32808;SDS011;19159;48.178;16.386;2023-07-28T11:21:36;1.85;;;1.38;;
32808;SDS011;19159;48.178;16.386;2023-07-28T11:24:17;6.10;;;1.38;;
32808;SDS011;19159;48.178;16.386;2023-07-28T11:26:44;5.13;;;1.40;;
32808;SDS011;19159;48.178;16.386;2023-07-28T11:29:11;3.10;;;1.50;;
32808;SDS011;19159;48.178;16.386;2023-07-28T11:31:37;1.38;;;1.23;;
32808;SDS011;19159;48.178;16.386;2023-07-28T11:34:02;3.38;;;1.38;;
32808;SDS011;19159;48.178;16.386;2023-07-28T11:36:37;1.67;;;1.35;;
32808;SDS011;19159;48.178;16.386;2023-07-28T11:39:02;7.47;;;1.30;;
32808;SDS011;19159;48.178;16.386;2023-07-28T11:41:30;2.10;;;1.73;;
32808;SDS011;19159;48.178;16.386;2023-07-28T11:43:58;3.17;;;1.20;;
32808;SDS011;19159;48.178;16.386;2023-07-28T11:46:33;4.15;;;1.58;;
32808;SDS011;19159;48.178;16.386;2023-07-28T11:49:27;1.85;;;1.38;;
32808;SDS011;19159;48.178;16.386;2023-07-28T11:51:55;2.17;;;1.73;;
32808;SDS011;19159;48.178;16.386;2023-07-28T11:54:24;3.03;;;1.58;;
32808;SDS011;19159;48.178;16.386;2023-07-28T11:56:51;6.20;;;1.45;;
32808;SDS011;19159;48.178;16.386;2023-07-28T11:59:20;3.08;;;1.67;;
32808;SDS011;19159;48.178;16.386;2023-07-28T12:04:25;2.08;;;1.52;;
32808;SDS011;19159;48.178;16.386;2023-07-28T12:07:07;2.22;;;1.50;;
32808;SDS011;19159;48.178;16.386;2023-07-28T12:12:17;1.73;;;1.27;;
32808;SDS011;19159;48.178;16.386;2023-07-28T12:14:47;2.88;;;1.42;;
32808;SDS011;19159;48.178;16.386;2023-07-28T12:17:16;3.53;;;1.80;;
32808;SDS011;19159;48.178;16.386;2023-07-28T12:22:39;2.53;;;1.17;;
32808;SDS011;19159;48.178;16.386;2023-07-28T12:25:09;3.92;;;1.63;;
32808;SDS011;19159;48.178;16.386;2023-07-28T12:27:36;2.28;;;1.45;;
32808;SDS011;19159;48.178;16.386;2023-07-28T12:30:02;2.28;;;1.48;;
32808;SDS011;19159;48.178;16.386;2023-07-28T12:32:28;6.07;;;1.52;;
32808;SDS011;19159;48.178;16.386;2023-07-28T12:34:54;1.27;;;1.10;;
32808;SDS011;19159;48.178;16.386;2023-07-28T12:37:20;2.60;;;1.52;;
32808;SDS011;19159;48.178;16.386;2023-07-28T12:39:46;2.55;;;1.30;;
32808;SDS011;19159;48.178;16.386;2023-07-28T12:42:13;4.57;;;1.42;;
32808;SDS011;19159;48.178;16.386;2023-07-28T12:44:40;1.63;;;1.27;;
32808;SDS011;19159;48.178;16.386;2023-07-28T12:47:06;1.95;;;1.48;;
32808;SDS011;19159;48.178;16.386;2023-07-28T12:49:32;3.47;;;1.38;;
32808;SDS011;19159;48.178;16.386;2023-07-28T12:51:59;3.97;;;1.58;;
32808;SDS011;19159;48.178;16.386;2023-07-28T12:54:26;3.53;;;1.38;;
32808;SDS011;19159;48.178;16.386;2023-07-28T12:56:53;2.42;;;1.30;;
32808;SDS011;19159;48.178;16.386;2023-07-28T12:59:19;3.00;;;1.42;;
32808;SDS011;19159;48.178;16.386;2023-07-28T13:01:45;1.85;;;1.60;;
32808;SDS011;19159;48.178;16.386;2023-07-28T13:04:10;3.03;;;1.48;;
32808;SDS011;19159;48.178;16.386;2023-07-28T13:06:36;2.03;;;1.40;;
32808;SDS011;19159;48.178;16.386;2023-07-28T13:09:02;2.92;;;1.67;;
32808;SDS011;19159;48.178;16.386;2023-07-28T13:11:28;6.43;;;1.33;;
32808;SDS011;19159;48.178;16.386;2023-07-28T13:13:54;2.72;;;1.48;;
32808;SDS011;19159;48.178;16.386;2023-07-28T13:16:20;3.53;;;1.38;;
32808;SDS011;19159;48.178;16.386;2023-07-28T13:18:46;3.72;;;1.83;;
32808;SDS011;19159;48.178;16.386;2023-07-28T13:21:12;2.55;;;1.15;;
32808;SDS011;19159;48.178;16.386;2023-07-28T13:23:38;6.90;;;1.35;;
32808;SDS011;19159;48.178;16.386;2023-07-28T13:26:04;1.42;;;1.33;;
32808;SDS011;19159;48.178;16.386;2023-07-28T13:28:29;2.15;;;1.20;;
32808;SDS011;19159;48.178;16.386;2023-07-28T13:30:55;1.52;;;1.33;;
32808;SDS011;19159;48.178;16.386;2023-07-28T13:33:21;1.70;;;1.35;;
32808;SDS011;19159;48.178;16.386;2023-07-28T13:35:47;2.42;;;1.40;;
32808;SDS011;19159;48.178;16.386;2023-07-28T13:38:12;2.28;;;1.40;;
32808;SDS011;19159;48.178;16.386;2023-07-28T13:40:38;3.92;;;1.42;;
32808;SDS011;19159;48.178;16.386;2023-07-28T13:43:04;2.40;;;1.52;;
32808;SDS011;19159;48.178;16.386;2023-07-28T13:45:29;1.30;;;1.20;;
32808;SDS011;19159;48.178;16.386;2023-07-28T13:47:55;2.03;;;1.20;;
32808;SDS011;19159;48.178;16.386;2023-07-28T13:50:21;2.85;;;1.50;;
32808;SDS011;19159;48.178;16.386;2023-07-28T13:52:46;2.00;;;1.30;;
32808;SDS011;19159;48.178;16.386;2023-07-28T13:55:12;3.25;;;1.67;;
32808;SDS011;19159;48.178;16.386;2023-07-28T13:57:38;2.10;;;1.20;;
32808;SDS011;19159;48.178;16.386;2023-07-28T14:00:04;2.38;;;1.55;;
32808;SDS011;19159;48.178;16.386;2023-07-28T14:02:37;1.80;;;1.40;;
32808;SDS011;19159;48.178;16.386;2023-07-28T14:05:04;3.72;;;1.42;;
32808;SDS011;19159;48.178;16.386;2023-07-28T14:07:30;2.95;;;1.65;;
32808;SDS011;19159;48.178;16.386;2023-07-28T14:09:56;4.30;;;1.60;;
32808;SDS011;19159;48.178;16.386;2023-07-28T14:12:22;1.88;;;1.63;;
32808;SDS011;19159;48.178;16.386;2023-07-28T14:14:47;2.40;;;1.58;;
32808;SDS011;19159;48.178;16.386;2023-07-28T14:17:14;1.73;;;1.40;;
32808;SDS011;19159;48.178;16.386;2023-07-28T14:19:40;2.90;;;1.48;;
32808;SDS011;19159;48.178;16.386;2023-07-28T14:22:06;1.50;;;1.40;;
32808;SDS011;19159;48.178;16.386;2023-07-28T14:24:32;3.75;;;1.65;;
32808;SDS011;19159;48.178;16.386;2023-07-28T14:30:04;3.72;;;1.75;;
32808;SDS011;19159;48.178;16.386;2023-07-28T14:32:32;2.97;;;1.50;;
32808;SDS011;19159;48.178;16.386;2023-07-28T14:35:10;2.83;;;1.60;;
32808;SDS011;19159;48.178;16.386;2023-07-28T14:37:35;1.92;;;1.40;;
32808;SDS011;19159;48.178;16.386;2023-07-28T14:40:01;2.13;;;1.48;;
32808;SDS011;19159;48.178;16.386;2023-07-28T14:42:27;2.03;;;1.40;;
32808;SDS011;19159;48.178;16.386;2023-07-28T14:44:52;2.72;;;1.70;;
32808;SDS011;19159;48.178;16.386;2023-07-28T14:47:18;4.18;;;1.70;;
32808;SDS011;19159;48.178;16.386;2023-07-28T14:49:44;4.03;;;1.70;;